sensor_id;sensor_type;location;lat;lon;timestamp;pressure;altitude;pressure_sealevel;temperature;humidity
23164;BME280;31429;42.674;23.350;2023-05-23T00:00:53;94623.75;;;11.86;100.00
23164;BME280;31429;42.674;23.350;2023-05-23T00:01:53;94613.50;;;11.86;100.00
23164;BME280;31429;42.674;23.350;2023-05-23T00:02:54;94609.38;;;11.84;100.00
23164;BME280;31429;42.674;23.350;2023-05-23T00:03:55;94607.03;;;11.79;100.00
23164;BME280;31429;42.674;23.350;2023-05-23T00:04:55;94611.44;;;11.76;100.00
23164;BME280;31429;42.674;23.350;2023-05-23T00:05:58;94598.59;;;11.77;100.00
23164;BME280;31429;42.674;23.350;2023-05-23T00:06:58;94608.59;;;11.82;100.00
23164;BME280;31429;42.674;23.350;2023-05-23T00:07:59;94604.19;;;11.85;100.00
23164;BME280;31429;42.674;23.350;2023-05-23T00:09:00;94596.28;;;12.08;100.00
23164;BME280;31429;42.674;23.350;2023-05-23T00:10:01;94599.94;;;12.22;100.00
23164;BME280;31429;42.674;23.350;2023-05-23T00:11:02;94606.38;;;12.30;100.00
23164;BME280;31429;42.674;23.350;2023-05-23T00:12:03;94603.94;;;12.27;100.00
23164;BME280;31429;42.674;23.350;2023-05-23T00:13:04;94604.97;;;12.23;100.00
23164;BME280;31429;42.674;23.350;2023-05-23T00:14:10;94600.91;;;12.19;100.00
23164;BME280;31429;42.674;23.350;2023-05-23T00:15:11;94598.50;;;12.16;100.00
23164;BME280;31429;42.674;23.350;2023-05-23T00:16:13;94600.16;;;11.98;100.00
23164;BME280;31429;42.674;23.350;2023-05-23T00:17:13;94606.47;;;11.91;100.00
23164;BME280;31429;42.674;23.350;2023-05-23T00:18:16;94599.94;;;11.84;100.00
23164;BME280;31429;42.674;23.350;2023-05-23T00:19:17;94602.72;;;11.80;100.00
23164;BME280;31429;42.674;23.350;2023-05-23T00:20:18;94605.44;;;11.77;100.00
23164;BME280;31429;42.674;23.350;2023-05-23T00:21:20;94607.25;;;11.75;100.00
23164;BME280;31429;42.674;23.350;2023-05-23T00:22:21;94606.59;;;11.70;100.00
23164;BME280;31429;42.674;23.350;2023-05-23T00:23:21;94605.69;;;11.71;100.00
23164;BME280;31429;42.674;23.350;2023-05-23T00:24:24;94601.28;;;11.74;100.00
23164;BME280;31429;42.674;23.350;2023-05-23T00:25:25;94604.38;;;11.81;100.00
23164;BME280;31429;42.674;23.350;2023-05-23T00:26:33;94597.25;;;11.87;100.00
23164;BME280;31429;42.674;23.350;2023-05-23T00:27:34;94600.94;;;11.82;100.00
23164;BME280;31429;42.674;23.350;2023-05-23T00:28:36;94599.13;;;11.84;100.00
23164;BME280;31429;42.674;23.350;2023-05-23T00:29:38;94605.03;;;11.86;100.00
23164;BME280;31429;42.674;23.350;2023-05-23T00:30:39;94595.16;;;11.95;100.00
23164;BME280;31429;42.674;23.350;2023-05-23T00:31:40;94593.41;;;11.97;100.00
23164;BME280;31429;42.674;23.350;2023-05-23T00:32:40;94591.72;;;11.96;100.00
23164;BME280;31429;42.674;23.350;2023-05-23T00:33:41;94597.28;;;12.06;100.00
23164;BME280;31429;42.674;23.350;2023-05-23T00:34:41;94604.94;;;12.06;100.00
23164;BME280;31429;42.674;23.350;2023-05-23T00:35:43;94591.84;;;11.93;100.00
23164;BME280;31429;42.674;23.350;2023-05-23T00:36:44;94600.09;;;11.81;100.00
23164;BME280;31429;42.674;23.350;2023-05-23T00:37:46;94598.78;;;11.73;100.00
23164;BME280;31429;42.674;23.350;2023-05-23T00:38:49;94597.88;;;11.74;100.00
23164;BME280;31429;42.674;23.350;2023-05-23T00:39:50;94601.66;;;11.65;100.00
23164;BME280;31429;42.674;23.350;2023-05-23T00:40:50;94604.22;;;11.65;100.00
23164;BME280;31429;42.674;23.350;2023-05-23T00:41:51;94603.47;;;11.63;100.00
23164;BME280;31429;42.674;23.350;2023-05-23T00:42:51;94600.94;;;11.62;100.00
23164;BME280;31429;42.674;23.350;2023-05-23T00:43:52;94603.50;;;11.62;100.00
23164;BME280;31429;42.674;23.350;2023-05-23T00:44:54;94604.34;;;11.62;100.00
23164;BME280;31429;42.674;23.350;2023-05-23T00:45:55;94598.38;;;11.62;100.00
23164;BME280;31429;42.674;23.350;2023-05-23T00:46:56;94597.19;;;11.70;100.00
23164;BME280;31429;42.674;23.350;2023-05-23T00:47:57;94594.22;;;11.79;100.00
23164;BME280;31429;42.674;23.350;2023-05-23T00:48:59;94585.34;;;11.86;100.00
23164;BME280;31429;42.674;23.350;2023-05-23T00:50:00;94592.41;;;11.81;100.00
23164;BME280;31429;42.674;23.350;2023-05-23T00:51:01;94593.88;;;11.67;100.00
23164;BME280;31429;42.674;23.350;2023-05-23T00:52:02;94599.34;;;11.59;100.00
23164;BME280;31429;42.674;23.350;2023-05-23T00:53:03;94602.13;;;11.54;100.00
23164;BME280;31429;42.674;23.350;2023-05-23T00:54:05;94605.78;;;11.49;100.00
23164;BME280;31429;42.674;23.350;2023-05-23T00:55:07;94597.56;;;11.61;100.00
23164;BME280;31429;42.674;23.350;2023-05-23T00:56:07;94601.47;;;11.70;100.00
23164;BME280;31429;42.674;23.350;2023-05-23T00:57:08;94597.06;;;11.53;100.00
23164;BME280;31429;42.674;23.350;2023-05-23T00:58:09;94599.13;;;11.45;100.00
23164;BME280;31429;42.674;23.350;2023-05-23T00:59:10;94600.34;;;11.36;100.00
23164;BME280;31429;42.674;23.350;2023-05-23T01:00:14;94598.16;;;11.29;100.00
23164;BME280;31429;42.674;23.350;2023-05-23T01:01:15;94601.72;;;11.25;100.00
23164;BME280;31429;42.674;23.350;2023-05-23T01:02:16;94598.06;;;11.30;100.00
23164;BME280;31429;42.674;23.350;2023-05-23T01:03:17;94602.66;;;11.42;100.00
23164;BME280;31429;42.674;23.350;2023-05-23T01:04:18;94608.00;;;11.38;100.00
23164;BME280;31429;42.674;23.350;2023-05-23T01:05:20;94598.56;;;11.38;100.00
23164;BME280;31429;42.674;23.350;2023-05-23T01:06:21;94608.47;;;11.46;100.00
23164;BME280;31429;42.674;23.350;2023-05-23T01:07:22;94609.25;;;11.48;100.00
23164;BME280;31429;42.674;23.350;2023-05-23T01:08:23;94605.94;;;11.46;100.00
23164;BME280;31429;42.674;23.350;2023-05-23T01:09:25;94601.63;;;11.46;100.00
23164;BME280;31429;42.674;23.350;2023-05-23T01:10:27;94607.31;;;11.53;100.00
23164;BME280;31429;42.674;23.350;2023-05-23T01:11:34;94608.84;;;11.57;100.00
23164;BME280;31429;42.674;23.350;2023-05-23T01:12:42;94606.94;;;11.42;100.00
23164;BME280;31429;42.674;23.350;2023-05-23T01:13:51;94604.84;;;11.31;100.00
23164;BME280;31429;42.674;23.350;2023-05-23T01:15:00;94601.84;;;11.22;100.00
23164;BME280;31429;42.674;23.350;2023-05-23T01:16:08;94608.75;;;11.20;100.00
23164;BME280;31429;42.674;23.350;2023-05-23T01:17:18;94608.75;;;11.20;100.00
23164;BME280;31429;42.674;23.350;2023-05-23T01:18:27;94609.28;;;11.08;100.00
23164;BME280;31429;42.674;23.350;2023-05-23T01:20:01;94603.53;;;11.03;100.00
23164;BME280;31429;42.674;23.350;2023-05-23T01:21:06;94606.28;;;10.98;100.00
23164;BME280;31429;42.674;23.350;2023-05-23T01:22:13;94604.38;;;11.03;100.00
23164;BME280;31429;42.674;23.350;2023-05-23T01:25:00;94601.34;;;11.14;100.00
23164;BME280;31429;42.674;23.350;2023-05-23T01:26:17;94595.72;;;11.26;100.00
23164;BME280;31429;42.674;23.350;2023-05-23T01:28:42;94604.47;;;11.40;100.00
23164;BME280;31429;42.674;23.350;2023-05-23T01:29:45;94607.91;;;11.39;100.00
23164;BME280;31429;42.674;23.350;2023-05-23T01:30:47;94607.91;;;11.39;100.00
23164;BME280;31429;42.674;23.350;2023-05-23T01:31:53;94605.22;;;11.42;100.00
23164;BME280;31429;42.674;23.350;2023-05-23T01:32:55;94605.47;;;11.36;100.00
23164;BME280;31429;42.674;23.350;2023-05-23T01:33:57;94600.00;;;11.25;100.00
23164;BME280;31429;42.674;23.350;2023-05-23T01:34:58;94602.06;;;11.17;100.00
23164;BME280;31429;42.674;23.350;2023-05-23T01:36:01;94602.06;;;11.17;100.00
23164;BME280;31429;42.674;23.350;2023-05-23T01:37:07;94608.88;;;11.17;100.00
23164;BME280;31429;42.674;23.350;2023-05-23T01:38:08;94609.53;;;11.22;100.00
23164;BME280;31429;42.674;23.350;2023-05-23T01:39:10;94605.09;;;11.25;100.00
23164;BME280;31429;42.674;23.350;2023-05-23T01:40:11;94606.00;;;11.24;100.00
23164;BME280;31429;42.674;23.350;2023-05-23T01:41:11;94601.94;;;11.20;100.00
23164;BME280;31429;42.674;23.350;2023-05-23T01:42:12;94605.44;;;11.18;100.00
23164;BME280;31429;42.674;23.350;2023-05-23T01:43:14;94604.34;;;11.23;100.00
23164;BME280;31429;42.674;23.350;2023-05-23T01:44:16;94598.97;;;11.29;100.00
23164;BME280;31429;42.674;23.350;2023-05-23T01:45:17;94601.91;;;11.40;100.00
23164;BME280;31429;42.674;23.350;2023-05-23T01:46:19;94600.44;;;11.35;100.00
23164;BME280;31429;42.674;23.350;2023-05-23T01:47:21;94588.66;;;11.31;100.00
23164;BME280;31429;42.674;23.350;2023-05-23T01:48:22;94595.63;;;11.27;100.00
23164;BME280;31429;42.674;23.350;2023-05-23T01:49:25;94586.38;;;11.25;100.00
23164;BME280;31429;42.674;23.350;2023-05-23T01:50:26;94587.47;;;11.19;100.00
23164;BME280;31429;42.674;23.350;2023-05-23T01:51:27;94586.69;;;11.17;100.00
23164;BME280;31429;42.674;23.350;2023-05-23T01:52:28;94592.66;;;11.18;100.00
23164;BME280;31429;42.674;23.350;2023-05-23T01:53:29;94589.00;;;11.23;100.00
23164;BME280;31429;42.674;23.350;2023-05-23T01:54:31;94590.50;;;11.27;100.00
23164;BME280;31429;42.674;23.350;2023-05-23T01:55:34;94586.91;;;11.51;100.00
23164;BME280;31429;42.674;23.350;2023-05-23T01:56:35;94589.06;;;11.61;100.00
23164;BME280;31429;42.674;23.350;2023-05-23T01:57:36;94586.06;;;11.71;100.00
23164;BME280;31429;42.674;23.350;2023-05-23T01:58:37;94576.97;;;11.83;100.00
23164;BME280;31429;42.674;23.350;2023-05-23T01:59:40;94581.69;;;11.92;100.00
23164;BME280;31429;42.674;23.350;2023-05-23T02:00:40;94583.16;;;11.97;100.00
23164;BME280;31429;42.674;23.350;2023-05-23T02:01:41;94582.16;;;12.00;100.00
23164;BME280;31429;42.674;23.350;2023-05-23T02:02:42;94582.78;;;12.05;100.00
23164;BME280;31429;42.674;23.350;2023-05-23T02:03:43;94575.94;;;12.05;100.00
23164;BME280;31429;42.674;23.350;2023-05-23T02:04:44;94589.56;;;12.06;100.00
23164;BME280;31429;42.674;23.350;2023-05-23T02:05:44;94587.69;;;12.09;100.00
23164;BME280;31429;42.674;23.350;2023-05-23T02:06:45;94583.25;;;12.13;100.00
23164;BME280;31429;42.674;23.350;2023-05-23T02:07:46;94585.97;;;12.10;100.00
23164;BME280;31429;42.674;23.350;2023-05-23T02:08:47;94592.34;;;12.20;100.00
23164;BME280;31429;42.674;23.350;2023-05-23T02:09:47;94586.44;;;12.18;100.00
23164;BME280;31429;42.674;23.350;2023-05-23T02:10:48;94589.34;;;12.10;100.00
23164;BME280;31429;42.674;23.350;2023-05-23T02:11:49;94587.81;;;12.06;100.00
23164;BME280;31429;42.674;23.350;2023-05-23T02:12:49;94589.06;;;11.98;100.00
23164;BME280;31429;42.674;23.350;2023-05-23T02:13:50;94592.06;;;11.89;100.00
23164;BME280;31429;42.674;23.350;2023-05-23T02:14:53;94587.75;;;11.89;100.00
23164;BME280;31429;42.674;23.350;2023-05-23T02:15:54;94589.84;;;12.00;100.00
23164;BME280;31429;42.674;23.350;2023-05-23T02:16:55;94586.66;;;12.14;100.00
23164;BME280;31429;42.674;23.350;2023-05-23T02:17:55;94589.06;;;12.17;100.00
23164;BME280;31429;42.674;23.350;2023-05-23T02:18:56;94591.28;;;12.24;100.00
23164;BME280;31429;42.674;23.350;2023-05-23T02:19:56;94585.25;;;12.25;100.00
23164;BME280;31429;42.674;23.350;2023-05-23T02:20:57;94579.06;;;12.29;100.00
23164;BME280;31429;42.674;23.350;2023-05-23T02:21:58;94588.34;;;12.32;100.00
23164;BME280;31429;42.674;23.350;2023-05-23T02:22:58;94580.47;;;12.18;100.00
23164;BME280;31429;42.674;23.350;2023-05-23T02:23:59;94577.44;;;12.09;100.00
23164;BME280;31429;42.674;23.350;2023-05-23T02:25:00;94588.31;;;12.15;100.00
23164;BME280;31429;42.674;23.350;2023-05-23T02:26:00;94582.84;;;12.22;100.00
23164;BME280;31429;42.674;23.350;2023-05-23T02:27:01;94585.31;;;12.24;100.00
23164;BME280;31429;42.674;23.350;2023-05-23T02:28:01;94588.72;;;12.24;100.00
23164;BME280;31429;42.674;23.350;2023-05-23T02:29:02;94587.72;;;12.27;100.00
23164;BME280;31429;42.674;23.350;2023-05-23T02:30:06;94582.69;;;12.25;100.00
23164;BME280;31429;42.674;23.350;2023-05-23T02:31:06;94588.31;;;12.15;100.00
23164;BME280;31429;42.674;23.350;2023-05-23T02:32:07;94582.03;;;12.03;100.00
23164;BME280;31429;42.674;23.350;2023-05-23T02:33:08;94578.81;;;11.98;100.00
23164;BME280;31429;42.674;23.350;2023-05-23T02:34:08;94580.91;;;11.90;100.00
23164;BME280;31429;42.674;23.350;2023-05-23T02:35:10;94585.06;;;11.92;100.00
23164;BME280;31429;42.674;23.350;2023-05-23T02:36:11;94576.50;;;11.93;100.00
23164;BME280;31429;42.674;23.350;2023-05-23T02:37:12;94581.94;;;12.04;100.00
23164;BME280;31429;42.674;23.350;2023-05-23T02:38:13;94580.22;;;12.05;100.00
23164;BME280;31429;42.674;23.350;2023-05-23T02:39:13;94581.06;;;12.05;100.00
23164;BME280;31429;42.674;23.350;2023-05-23T02:40:14;94571.09;;;11.99;100.00
23164;BME280;31429;42.674;23.350;2023-05-23T02:41:15;94575.38;;;11.99;100.00
23164;BME280;31429;42.674;23.350;2023-05-23T02:42:16;94575.84;;;12.07;100.00
23164;BME280;31429;42.674;23.350;2023-05-23T02:43:16;94572.94;;;12.15;100.00
23164;BME280;31429;42.674;23.350;2023-05-23T02:44:17;94575.28;;;12.19;100.00
23164;BME280;31429;42.674;23.350;2023-05-23T02:45:20;94567.59;;;12.19;100.00
23164;BME280;31429;42.674;23.350;2023-05-23T02:46:21;94568.28;;;12.23;100.00
23164;BME280;31429;42.674;23.350;2023-05-23T02:47:21;94577.91;;;12.18;100.00
23164;BME280;31429;42.674;23.350;2023-05-23T02:48:22;94570.53;;;12.12;100.00
23164;BME280;31429;42.674;23.350;2023-05-23T02:49:22;94567.59;;;12.00;100.00
23164;BME280;31429;42.674;23.350;2023-05-23T02:50:23;94567.75;;;12.16;100.00
23164;BME280;31429;42.674;23.350;2023-05-23T02:51:24;94567.31;;;12.25;100.00
23164;BME280;31429;42.674;23.350;2023-05-23T02:52:25;94567.16;;;12.28;100.00
23164;BME280;31429;42.674;23.350;2023-05-23T02:53:26;94573.41;;;12.23;100.00
23164;BME280;31429;42.674;23.350;2023-05-23T02:54:26;94569.41;;;12.17;100.00
23164;BME280;31429;42.674;23.350;2023-05-23T02:55:27;94574.03;;;12.09;100.00
23164;BME280;31429;42.674;23.350;2023-05-23T02:56:28;94569.84;;;12.08;100.00
23164;BME280;31429;42.674;23.350;2023-05-23T02:57:28;94568.91;;;12.09;100.00
23164;BME280;31429;42.674;23.350;2023-05-23T02:58:29;94569.13;;;12.04;100.00
23164;BME280;31429;42.674;23.350;2023-05-23T02:59:30;94572.13;;;11.95;100.00
23164;BME280;31429;42.674;23.350;2023-05-23T03:00:32;94563.81;;;11.90;100.00
23164;BME280;31429;42.674;23.350;2023-05-23T03:01:33;94569.84;;;11.89;100.00
23164;BME280;31429;42.674;23.350;2023-05-23T03:02:34;94574.53;;;11.98;100.00
23164;BME280;31429;42.674;23.350;2023-05-23T03:03:35;94571.97;;;11.98;100.00
23164;BME280;31429;42.674;23.350;2023-05-23T03:04:35;94573.22;;;12.08;100.00
23164;BME280;31429;42.674;23.350;2023-05-23T03:05:37;94571.34;;;12.12;100.00
23164;BME280;31429;42.674;23.350;2023-05-23T03:06:38;94568.78;;;12.12;100.00
23164;BME280;31429;42.674;23.350;2023-05-23T03:07:39;94574.69;;;12.14;100.00
23164;BME280;31429;42.674;23.350;2023-05-23T03:08:40;94570.53;;;12.12;100.00
23164;BME280;31429;42.674;23.350;2023-05-23T03:09:41;94569.69;;;12.11;100.00
23164;BME280;31429;42.674;23.350;2023-05-23T03:10:41;94565.25;;;12.15;100.00
23164;BME280;31429;42.674;23.350;2023-05-23T03:11:42;94560.97;;;11.96;100.00
23164;BME280;31429;42.674;23.350;2023-05-23T03:12:43;94566.47;;;11.89;100.00
23164;BME280;31429;42.674;23.350;2023-05-23T03:13:43;94567.56;;;11.83;100.00
23164;BME280;31429;42.674;23.350;2023-05-23T03:14:44;94563.59;;;11.95;100.00
23164;BME280;31429;42.674;23.350;2023-05-23T03:15:46;94562.16;;;12.08;100.00
23164;BME280;31429;42.674;23.350;2023-05-23T03:16:47;94565.94;;;12.18;100.00
23164;BME280;31429;42.674;23.350;2023-05-23T03:17:48;94561.88;;;12.14;100.00
23164;BME280;31429;42.674;23.350;2023-05-23T03:18:48;94564.56;;;12.11;100.00
23164;BME280;31429;42.674;23.350;2023-05-23T03:19:49;94566.03;;;11.98;100.00
23164;BME280;31429;42.674;23.350;2023-05-23T03:20:50;94571.00;;;12.01;100.00
23164;BME280;31429;42.674;23.350;2023-05-23T03:21:50;94568.56;;;11.98;100.00
23164;BME280;31429;42.674;23.350;2023-05-23T03:22:51;94582.44;;;11.94;100.00
23164;BME280;31429;42.674;23.350;2023-05-23T03:23:52;94567.69;;;11.99;100.00
23164;BME280;31429;42.674;23.350;2023-05-23T03:24:52;94575.09;;;12.05;100.00
23164;BME280;31429;42.674;23.350;2023-05-23T03:25:53;94576.81;;;12.04;100.00
23164;BME280;31429;42.674;23.350;2023-05-23T03:26:54;94582.69;;;12.06;100.00
23164;BME280;31429;42.674;23.350;2023-05-23T03:27:55;94579.53;;;12.01;100.00
23164;BME280;31429;42.674;23.350;2023-05-23T03:28:55;94579.25;;;12.07;100.00
23164;BME280;31429;42.674;23.350;2023-05-23T03:29:56;94578.69;;;12.01;100.00
23164;BME280;31429;42.674;23.350;2023-05-23T03:30:58;94582.72;;;11.88;100.00
23164;BME280;31429;42.674;23.350;2023-05-23T03:31:59;94587.50;;;11.77;100.00
23164;BME280;31429;42.674;23.350;2023-05-23T03:32:59;94588.75;;;11.67;100.00
23164;BME280;31429;42.674;23.350;2023-05-23T03:34:01;94593.13;;;11.65;100.00
23164;BME280;31429;42.674;23.350;2023-05-23T03:35:02;94593.25;;;11.62;100.00
23164;BME280;31429;42.674;23.350;2023-05-23T03:36:03;94597.94;;;11.72;100.00
23164;BME280;31429;42.674;23.350;2023-05-23T03:37:04;94598.78;;;11.73;100.00
23164;BME280;31429;42.674;23.350;2023-05-23T03:38:04;94599.09;;;11.65;100.00
23164;BME280;31429;42.674;23.350;2023-05-23T03:39:05;94604.56;;;11.58;100.00
23164;BME280;31429;42.674;23.350;2023-05-23T03:40:07;94598.72;;;11.54;100.00
23164;BME280;31429;42.674;23.350;2023-05-23T03:41:09;94594.63;;;11.50;100.00
23164;BME280;31429;42.674;23.350;2023-05-23T03:42:09;94603.03;;;11.53;100.00
23164;BME280;31429;42.674;23.350;2023-05-23T03:43:10;94605.47;;;11.75;100.00
23164;BME280;31429;42.674;23.350;2023-05-23T03:44:11;94600.53;;;11.91;100.00
23164;BME280;31429;42.674;23.350;2023-05-23T03:45:12;94596.63;;;12.01;100.00
23164;BME280;31429;42.674;23.350;2023-05-23T03:46:14;94588.59;;;12.08;100.00
23164;BME280;31429;42.674;23.350;2023-05-23T03:47:14;94594.69;;;12.06;100.00
23164;BME280;31429;42.674;23.350;2023-05-23T03:48:15;94595.88;;;11.99;100.00
23164;BME280;31429;42.674;23.350;2023-05-23T03:49:16;94602.19;;;11.92;100.00
23164;BME280;31429;42.674;23.350;2023-05-23T03:50:16;94600.53;;;11.91;100.00
23164;BME280;31429;42.674;23.350;2023-05-23T03:51:17;94597.25;;;11.87;100.00
23164;BME280;31429;42.674;23.350;2023-05-23T03:52:17;94601.50;;;11.88;100.00
23164;BME280;31429;42.674;23.350;2023-05-23T03:53:18;94606.53;;;11.90;100.00
23164;BME280;31429;42.674;23.350;2023-05-23T03:54:19;94594.50;;;11.92;100.00
23164;BME280;31429;42.674;23.350;2023-05-23T03:55:19;94611.31;;;11.97;100.00
23164;BME280;31429;42.674;23.350;2023-05-23T03:56:21;94600.72;;;12.05;100.00
23164;BME280;31429;42.674;23.350;2023-05-23T03:57:22;94597.94;;;12.28;100.00
23164;BME280;31429;42.674;23.350;2023-05-23T03:58:22;94602.78;;;12.16;100.00
23164;BME280;31429;42.674;23.350;2023-05-23T03:59:23;94602.41;;;12.23;100.00
23164;BME280;31429;42.674;23.350;2023-05-23T04:00:24;94608.78;;;12.33;100.00
23164;BME280;31429;42.674;23.350;2023-05-23T04:01:26;94605.19;;;12.37;100.00
23164;BME280;31429;42.674;23.350;2023-05-23T04:02:27;94607.59;;;12.40;100.00
23164;BME280;31429;42.674;23.350;2023-05-23T04:03:29;94607.59;;;12.40;100.00
23164;BME280;31429;42.674;23.350;2023-05-23T04:04:31;94607.81;;;12.36;100.00
23164;BME280;31429;42.674;23.350;2023-05-23T04:05:32;94605.72;;;12.44;100.00
23164;BME280;31429;42.674;23.350;2023-05-23T04:06:33;94606.56;;;12.44;100.00
23164;BME280;31429;42.674;23.350;2023-05-23T04:07:33;94594.09;;;12.37;100.00
23164;BME280;31429;42.674;23.350;2023-05-23T04:08:34;94599.09;;;12.40;100.00
23164;BME280;31429;42.674;23.350;2023-05-23T04:09:35;94602.31;;;12.43;100.00
23164;BME280;31429;42.674;23.350;2023-05-23T04:10:35;94590.31;;;12.44;100.00
23164;BME280;31429;42.674;23.350;2023-05-23T04:11:36;94595.84;;;12.53;100.00
23164;BME280;31429;42.674;23.350;2023-05-23T04:12:37;94597.34;;;12.57;100.00
23164;BME280;31429;42.674;23.350;2023-05-23T04:13:40;94596.75;;;12.52;100.00
23164;BME280;31429;42.674;23.350;2023-05-23T04:14:42;94595.03;;;12.53;100.00
23164;BME280;31429;42.674;23.350;2023-05-23T04:15:42;94591.56;;;12.54;100.00
23164;BME280;31429;42.674;23.350;2023-05-23T04:16:45;94592.56;;;12.51;100.00
23164;BME280;31429;42.674;23.350;2023-05-23T04:17:47;94594.19;;;12.52;100.00
23164;BME280;31429;42.674;23.350;2023-05-23T04:18:48;94592.88;;;12.62;100.00
23164;BME280;31429;42.674;23.350;2023-05-23T04:19:49;94591.88;;;12.65;100.00
23164;BME280;31429;42.674;23.350;2023-05-23T04:20:50;94601.75;;;12.55;100.00
23164;BME280;31429;42.674;23.350;2023-05-23T04:21:51;94591.03;;;12.47;100.00
23164;BME280;31429;42.674;23.350;2023-05-23T04:22:51;94595.31;;;12.47;100.00
23164;BME280;31429;42.674;23.350;2023-05-23T04:23:52;94601.41;;;12.44;100.00
23164;BME280;31429;42.674;23.350;2023-05-23T04:24:53;94594.94;;;12.37;100.00
23164;BME280;31429;42.674;23.350;2023-05-23T04:25:53;94593.22;;;12.55;100.00
23164;BME280;31429;42.674;23.350;2023-05-23T04:26:54;94593.06;;;12.58;100.00
23164;BME280;31429;42.674;23.350;2023-05-23T04:27:55;94598.88;;;12.61;100.00
23164;BME280;31429;42.674;23.350;2023-05-23T04:28:56;94598.66;;;12.66;100.00
23164;BME280;31429;42.674;23.350;2023-05-23T04:29:56;94603.25;;;12.59;100.00
23164;BME280;31429;42.674;23.350;2023-05-23T04:30:57;94604.81;;;12.45;100.00
23164;BME280;31429;42.674;23.350;2023-05-23T04:31:59;94603.66;;;12.33;100.00
23164;BME280;31429;42.674;23.350;2023-05-23T04:33:00;94609.16;;;12.26;100.00
23164;BME280;31429;42.674;23.350;2023-05-23T04:34:00;94604.22;;;12.40;100.00
23164;BME280;31429;42.674;23.350;2023-05-23T04:35:02;94605.44;;;12.50;100.00
23164;BME280;31429;42.674;23.350;2023-05-23T04:36:04;94597.50;;;12.54;100.00
23164;BME280;31429;42.674;23.350;2023-05-23T04:37:04;94601.69;;;12.57;100.00
23164;BME280;31429;42.674;23.350;2023-05-23T04:38:06;94602.47;;;12.40;100.00
23164;BME280;31429;42.674;23.350;2023-05-23T04:39:07;94604.44;;;12.52;100.00
23164;BME280;31429;42.674;23.350;2023-05-23T04:40:08;94601.13;;;12.50;100.00
23164;BME280;31429;42.674;23.350;2023-05-23T04:41:09;94606.47;;;12.46;100.00
23164;BME280;31429;42.674;23.350;2023-05-23T04:42:09;94601.00;;;12.35;100.00
23164;BME280;31429;42.674;23.350;2023-05-23T04:43:10;94603.81;;;12.30;100.00
23164;BME280;31429;42.674;23.350;2023-05-23T04:44:13;94603.66;;;12.33;100.00
23164;BME280;31429;42.674;23.350;2023-05-23T04:45:14;94612.94;;;12.36;100.00
23164;BME280;31429;42.674;23.350;2023-05-23T04:46:15;94613.03;;;12.34;100.00
23164;BME280;31429;42.674;23.350;2023-05-23T04:47:17;94617.75;;;12.25;100.00
23164;BME280;31429;42.674;23.350;2023-05-23T04:48:18;94623.13;;;12.19;100.00
23164;BME280;31429;42.674;23.350;2023-05-23T04:49:21;94615.97;;;12.08;100.00
23164;BME280;31429;42.674;23.350;2023-05-23T04:50:22;94625.78;;;11.98;100.00
23164;BME280;31429;42.674;23.350;2023-05-23T04:51:22;94630.28;;;12.12;100.00
23164;BME280;31429;42.674;23.350;2023-05-23T04:52:24;94626.53;;;12.19;100.00
23164;BME280;31429;42.674;23.350;2023-05-23T04:53:26;94618.63;;;12.24;100.00
23164;BME280;31429;42.674;23.350;2023-05-23T04:54:27;94620.72;;;12.16;100.00
23164;BME280;31429;42.674;23.350;2023-05-23T04:55:28;94618.84;;;12.19;100.00
23164;BME280;31429;42.674;23.350;2023-05-23T04:56:28;94619.81;;;12.17;100.00
23164;BME280;31429;42.674;23.350;2023-05-23T04:57:29;94622.91;;;12.23;100.00
23164;BME280;31429;42.674;23.350;2023-05-23T04:58:30;94612.94;;;12.36;100.00
23164;BME280;31429;42.674;23.350;2023-05-23T04:59:31;94620.91;;;12.30;100.00
23164;BME280;31429;42.674;23.350;2023-05-23T05:00:31;94617.38;;;12.32;100.00
23164;BME280;31429;42.674;23.350;2023-05-23T05:01:32;94617.31;;;12.34;100.00
23164;BME280;31429;42.674;23.350;2023-05-23T05:02:35;94619.59;;;12.40;100.00
23164;BME280;31429;42.674;23.350;2023-05-23T05:03:36;94623.13;;;12.37;100.00
23164;BME280;31429;42.674;23.350;2023-05-23T05:04:36;94621.94;;;12.44;100.00
23164;BME280;31429;42.674;23.350;2023-05-23T05:05:37;94627.28;;;12.40;100.00
23164;BME280;31429;42.674;23.350;2023-05-23T05:06:39;94628.25;;;12.37;100.00
23164;BME280;31429;42.674;23.350;2023-05-23T05:07:40;94631.72;;;12.36;100.00
23164;BME280;31429;42.674;23.350;2023-05-23T05:08:41;94633.84;;;12.45;100.00
23164;BME280;31429;42.674;23.350;2023-05-23T05:09:41;94638.66;;;12.34;100.00
23164;BME280;31429;42.674;23.350;2023-05-23T05:10:42;94638.66;;;12.34;100.00
23164;BME280;31429;42.674;23.350;2023-05-23T05:11:43;94639.75;;;12.47;100.00
23164;BME280;31429;42.674;23.350;2023-05-23T05:12:44;94635.81;;;12.57;100.00
23164;BME280;31429;42.674;23.350;2023-05-23T05:13:51;94647.34;;;12.49;100.00
23164;BME280;31429;42.674;23.350;2023-05-23T05:14:52;94641.56;;;12.45;100.00
23164;BME280;31429;42.674;23.350;2023-05-23T05:15:53;94643.47;;;12.40;100.00
23164;BME280;31429;42.674;23.350;2023-05-23T05:16:53;94636.13;;;12.51;100.00
23164;BME280;31429;42.674;23.350;2023-05-23T05:17:55;94640.94;;;12.57;100.00
23164;BME280;31429;42.674;23.350;2023-05-23T05:18:56;94639.75;;;12.47;100.00
23164;BME280;31429;42.674;23.350;2023-05-23T05:19:57;94640.09;;;12.40;100.00
23164;BME280;31429;42.674;23.350;2023-05-23T05:20:57;94644.25;;;12.42;100.00